createdAt,value
2023-03-21T00:01:12.393Z,90.53
2023-03-21T00:03:51.369Z,90.50
2023-03-21T00:06:29.080Z,91.77
2023-03-21T00:09:09.477Z,90.57
2023-03-21T00:11:47.091Z,92.80
2023-03-21T00:14:25.212Z,84.00
2023-03-21T00:17:01.781Z,86.90
2023-03-21T00:19:41.114Z,87.87
2023-03-21T00:22:22.062Z,83.30
2023-03-21T00:25:01.624Z,89.33
2023-03-21T00:28:00.883Z,81.73
2023-03-21T00:30:34.409Z,87.07
2023-03-21T00:33:22.024Z,81.77
2023-03-21T00:36:06.634Z,84.60
2023-03-21T00:38:48.060Z,81.87
2023-03-21T00:41:41.461Z,83.53
2023-03-21T00:44:27.116Z,89.10
2023-03-21T00:47:07.859Z,93.30
2023-03-21T00:49:49.160Z,80.50
2023-03-21T00:52:40.324Z,74.70
2023-03-21T00:55:28.446Z,82.37
2023-03-21T00:58:07.247Z,88.47
2023-03-21T01:00:45.156Z,89.27
2023-03-21T01:03:25.547Z,86.40
2023-03-21T01:06:14.676Z,79.43
2023-03-21T01:08:54.944Z,94.50
2023-03-21T01:11:36.563Z,91.20
2023-03-21T01:14:22.633Z,93.13
2023-03-21T01:17:00.086Z,89.43
2023-03-21T01:19:51.117Z,93.30
2023-03-21T01:22:34.653Z,96.50
2023-03-21T01:25:22.416Z,95.30
2023-03-21T01:28:04.520Z,92.27
2023-03-21T01:30:43.825Z,102.77
2023-03-21T01:33:22.310Z,101.17
2023-03-21T01:36:11.823Z,94.97
2023-03-21T01:38:51.181Z,98.77
2023-03-21T01:41:46.984Z,94.93
2023-03-21T01:44:32.933Z,96.63
2023-03-21T01:47:12.878Z,101.80
2023-03-21T01:50:03.241Z,99.67
2023-03-21T01:53:05.814Z,99.10
2023-03-21T01:55:46.373Z,93.70
2023-03-21T01:58:43.267Z,101.87
2023-03-21T02:01:52.300Z,98.93
2023-03-21T02:04:36.468Z,97.60
2023-03-21T02:07:31.202Z,102.33
2023-03-21T02:10:23.615Z,98.73
2023-03-21T02:13:11.128Z,97.10
2023-03-21T02:15:55.912Z,100.97
2023-03-21T02:18:47.457Z,99.47
2023-03-21T02:21:59.160Z,90.57
2023-03-21T02:25:22.139Z,91.00
2023-03-21T02:28:03.284Z,88.37
2023-03-21T02:31:05.805Z,88.13
2023-03-21T02:34:16.355Z,87.23
2023-03-21T02:37:10.165Z,93.13
2023-03-21T02:40:02.329Z,94.27
2023-03-21T02:42:54.717Z,95.37
2023-03-21T02:45:38.309Z,104.17
2023-03-21T02:48:28.066Z,83.93
2023-03-21T02:51:13.519Z,93.20
2023-03-21T02:54:24.871Z,83.00
2023-03-21T02:57:00.798Z,84.73
2023-03-21T02:59:51.573Z,87.93
2023-03-21T03:02:44.524Z,84.07
2023-03-21T03:05:25.281Z,89.97
2023-03-21T03:08:15.097Z,91.70
2023-03-21T03:11:08.322Z,83.37
2023-03-21T03:14:38.393Z,88.23
2023-03-21T03:17:28.768Z,85.60
2023-03-21T03:20:27.377Z,81.63
2023-03-21T03:23:18.099Z,82.40
2023-03-21T03:26:06.278Z,89.20
2023-03-21T03:28:51.720Z,84.73
2023-03-21T03:31:34.821Z,87.03
2023-03-21T03:34:14.460Z,80.73
2023-03-21T03:36:57.977Z,80.90
2023-03-21T03:39:41.036Z,90.87
2023-03-21T03:42:28.454Z,83.77
2023-03-21T03:45:15.573Z,90.57
2023-03-21T03:47:59.508Z,85.67
2023-03-21T03:50:45.249Z,94.43
2023-03-21T03:53:32.510Z,87.77
2023-03-21T03:56:15.947Z,88.03
2023-03-21T03:58:58.403Z,93.50
2023-03-21T04:01:52.539Z,93.33
2023-03-21T04:04:30.870Z,92.13
2023-03-21T04:07:08.132Z,108.00
2023-03-21T04:09:47.793Z,83.50
2023-03-21T04:12:30.959Z,84.83
2023-03-21T04:15:26.404Z,90.87
2023-03-21T04:18:11.078Z,89.17
2023-03-21T04:20:50.153Z,87.00
2023-03-21T04:23:37.660Z,88.53
2023-03-21T04:26:22.640Z,92.67
2023-03-21T04:29:22.748Z,89.20
2023-03-21T04:32:35.712Z,88.13
2023-03-21T04:35:20.588Z,86.20
2023-03-21T04:38:02.734Z,88.87
2023-03-21T04:40:45.068Z,89.80
2023-03-21T04:43:26.774Z,80.47
2023-03-21T04:46:08.415Z,89.00
2023-03-21T04:48:47.668Z,88.17
2023-03-21T04:51:25.945Z,90.33
2023-03-21T04:56:44.821Z,90.87
2023-03-21T04:59:30.685Z,76.60
2023-03-21T05:02:08.846Z,77.43
2023-03-21T05:04:51.097Z,73.77
2023-03-21T05:07:30.184Z,78.30
2023-03-21T05:10:11.357Z,75.97
2023-03-21T05:12:56.902Z,73.77
2023-03-21T05:15:39.148Z,81.40
2023-03-21T05:18:26.445Z,80.27
2023-03-21T05:21:23.215Z,73.03
2023-03-21T05:24:00.190Z,87.30
2023-03-21T05:26:45.467Z,85.40
2023-03-21T05:29:25.889Z,92.60
2023-03-21T05:32:14.504Z,96.00
2023-03-21T05:35:00.119Z,89.07
2023-03-21T05:37:40.117Z,93.47
2023-03-21T05:40:38.403Z,91.20
2023-03-21T05:43:15.934Z,86.33
2023-03-21T05:45:52.676Z,89.87
2023-03-21T05:48:30.195Z,96.33
2023-03-21T05:51:29.825Z,92.07
2023-03-21T05:54:18.112Z,93.97
2023-03-21T05:57:07.379Z,87.87
2023-03-21T06:00:01.895Z,92.43
2023-03-21T06:02:54.071Z,94.47
2023-03-21T06:05:56.499Z,95.17
2023-03-21T06:08:38.142Z,99.77
2023-03-21T06:11:36.089Z,94.00
2023-03-21T06:14:34.974Z,106.33
2023-03-21T06:17:44.273Z,98.37
2023-03-21T06:20:42.547Z,91.70
2023-03-21T06:23:27.716Z,94.23
2023-03-21T06:26:26.190Z,101.30
2023-03-21T06:29:06.777Z,93.63
2023-03-21T06:31:50.985Z,91.13
2023-03-21T06:34:34.507Z,101.90
2023-03-21T06:37:17.661Z,94.60
2023-03-21T06:40:04.496Z,95.33
2023-03-21T06:42:47.106Z,94.07
2023-03-21T06:46:11.577Z,95.10
2023-03-21T06:48:56.048Z,95.13
2023-03-21T06:51:39.156Z,98.80
2023-03-21T06:54:52.245Z,100.73
2023-03-21T06:57:36.188Z,93.43
2023-03-21T07:00:17.692Z,104.43
2023-03-21T07:03:02.136Z,99.23
2023-03-21T07:05:46.753Z,101.60
2023-03-21T07:08:24.671Z,90.77
2023-03-21T07:11:08.528Z,90.90
2023-03-21T07:13:50.246Z,93.27
2023-03-21T07:16:44.542Z,99.80
2023-03-21T07:19:25.029Z,100.03
2023-03-21T07:22:10.517Z,97.40
2023-03-21T07:25:02.386Z,104.70
2023-03-21T07:27:53.034Z,100.13
2023-03-21T07:30:35.092Z,106.13
2023-03-21T07:33:19.374Z,102.27
2023-03-21T07:35:59.196Z,103.90
2023-03-21T07:38:45.586Z,105.50
2023-03-21T07:41:27.492Z,101.93
2023-03-21T07:44:26.581Z,110.90
2023-03-21T07:47:15.801Z,112.43
2023-03-21T07:50:14.623Z,108.57
2023-03-21T07:53:07.987Z,101.70
2023-03-21T07:55:46.135Z,109.20
2023-03-21T07:58:33.111Z,111.03
2023-03-21T08:01:30.284Z,110.47
2023-03-21T08:04:24.069Z,113.80
2023-03-21T08:07:11.065Z,106.57
2023-03-21T08:10:01.359Z,106.77
2023-03-21T08:12:40.695Z,118.10
2023-03-21T08:15:21.535Z,112.13
2023-03-21T08:18:12.317Z,111.33
2023-03-21T08:21:27.467Z,113.23
2023-03-21T08:24:38.267Z,106.00
2023-03-21T08:27:15.274Z,113.27
2023-03-21T08:29:55.079Z,107.37
2023-03-21T08:32:37.289Z,104.80
2023-03-21T08:35:24.888Z,111.63
2023-03-21T08:38:05.704Z,114.13
2023-03-21T08:40:51.411Z,109.83
2023-03-21T08:43:31.565Z,132.70
2023-03-21T08:46:23.131Z,125.23
2023-03-21T08:49:04.498Z,120.37
2023-03-21T08:51:49.223Z,114.07
2023-03-21T08:54:31.331Z,107.00
2023-03-21T08:57:13.337Z,113.40
2023-03-21T08:59:50.730Z,121.10
2023-03-21T09:02:29.168Z,110.13
2023-03-21T09:05:13.543Z,118.63
2023-03-21T09:07:53.020Z,116.53
2023-03-21T09:10:38.264Z,108.63
2023-03-21T09:13:19.539Z,120.57
2023-03-21T09:15:58.343Z,107.90
2023-03-21T09:18:46.756Z,119.93
2023-03-21T09:21:25.179Z,123.37
2023-03-21T09:24:07.711Z,109.17
2023-03-21T09:26:45.442Z,112.33
2023-03-21T09:29:25.392Z,110.80
2023-03-21T09:32:07.760Z,129.27
2023-03-21T09:34:44.427Z,117.13
2023-03-21T09:37:22.985Z,130.23
2023-03-21T09:39:59.707Z,117.73
2023-03-21T09:42:49.118Z,114.87
2023-03-21T09:45:36.994Z,120.63
2023-03-21T09:48:33.512Z,122.03
2023-03-21T09:51:11.103Z,119.90
2023-03-21T09:53:54.926Z,123.53
2023-03-21T09:56:35.913Z,118.57
2023-03-21T09:59:14.566Z,124.17
2023-03-21T10:01:59.257Z,126.33
2023-03-21T10:04:47.984Z,117.20
2023-03-21T10:07:32.437Z,120.10
2023-03-21T10:10:11.873Z,124.17
2023-03-21T10:12:49.574Z,122.30
2023-03-21T10:15:28.304Z,120.67
2023-03-21T10:18:22.949Z,125.00
2023-03-21T10:21:00.226Z,123.97
2023-03-21T10:23:37.724Z,121.23
2023-03-21T10:26:21.102Z,117.87
2023-03-21T10:29:00.990Z,121.13
2023-03-21T10:31:40.345Z,128.17
2023-03-21T10:34:26.269Z,128.17
2023-03-21T10:37:02.523Z,128.20
2023-03-21T10:39:48.421Z,132.33
2023-03-21T10:42:31.118Z,124.10
2023-03-21T10:45:09.506Z,133.83
2023-03-21T10:48:20.647Z,121.97
2023-03-21T10:51:09.010Z,124.00
2023-03-21T10:53:53.441Z,125.23
2023-03-21T10:56:38.594Z,131.53
2023-03-21T10:59:25.348Z,125.47
2023-03-21T11:02:04.259Z,123.53
2023-03-21T11:04:43.771Z,130.70
2023-03-21T11:07:28.741Z,128.63
2023-03-21T11:10:28.573Z,129.93
2023-03-21T11:13:16.336Z,128.23
2023-03-21T11:16:02.116Z,135.53
2023-03-21T11:18:46.316Z,129.67
2023-03-21T11:21:35.496Z,134.70
2023-03-21T11:24:23.995Z,129.20
2023-03-21T11:27:09.175Z,123.70
2023-03-21T11:29:50.838Z,132.93
2023-03-21T11:32:36.768Z,137.37
2023-03-21T11:35:22.636Z,139.87
2023-03-21T11:38:04.867Z,138.27
2023-03-21T11:41:11.990Z,139.87
2023-03-21T11:44:04.528Z,139.20
2023-03-21T11:46:51.778Z,139.37
2023-03-21T11:49:31.146Z,138.67
2023-03-21T11:52:27.666Z,139.90
2023-03-21T11:55:40.589Z,144.27
2023-03-21T11:58:45.728Z,145.00
2023-03-21T12:01:35.913Z,139.93
2023-03-21T12:04:33.491Z,144.47
2023-03-21T12:07:22.271Z,140.33
2023-03-21T12:10:13.943Z,143.23
2023-03-21T12:13:07.982Z,141.67
2023-03-21T12:16:00.891Z,141.33
2023-03-21T12:19:04.695Z,147.50
2023-03-21T12:21:56.021Z,146.43
2023-03-21T12:24:42.494Z,154.33
2023-03-21T12:27:46.312Z,144.10
2023-03-21T12:30:41.495Z,143.77
2023-03-21T12:33:50.091Z,156.53
2023-03-21T12:36:50.983Z,140.10
2023-03-21T12:39:36.106Z,150.70
2023-03-21T12:42:41.636Z,152.10
2023-03-21T12:45:47.314Z,143.90
2023-03-21T12:48:49.520Z,142.77
2023-03-21T12:51:40.889Z,143.17
2023-03-21T12:54:39.597Z,146.03
2023-03-21T12:57:19.992Z,147.83
2023-03-21T13:00:16.203Z,146.03
2023-03-21T13:03:00.594Z,143.27
2023-03-21T13:05:39.822Z,140.40
2023-03-21T13:08:31.054Z,140.40
2023-03-21T13:11:13.869Z,147.80
2023-03-21T13:13:58.443Z,149.27
2023-03-21T13:17:01.286Z,149.33
2023-03-21T13:19:44.721Z,141.83
2023-03-21T13:22:32.862Z,146.13
2023-03-21T13:25:34.025Z,145.30
2023-03-21T13:28:22.378Z,142.90
2023-03-21T13:31:01.521Z,144.70
2023-03-21T13:33:48.677Z,143.27
2023-03-21T13:36:37.652Z,142.60
2023-03-21T13:39:26.859Z,137.13
2023-03-21T13:42:35.270Z,139.37
2023-03-21T13:45:33.960Z,141.37
2023-03-21T13:48:58.518Z,143.37
2023-03-21T13:52:05.744Z,141.90
2023-03-21T13:55:05.380Z,140.10
2023-03-21T13:57:48.154Z,155.00
2023-03-21T14:00:45.075Z,145.57
2023-03-21T14:03:29.260Z,143.13
2023-03-21T14:06:10.957Z,145.17
2023-03-21T14:09:00.141Z,146.83
2023-03-21T14:11:41.967Z,140.83
2023-03-21T14:14:28.345Z,140.10
2023-03-21T14:17:08.710Z,136.57
2023-03-21T14:19:49.032Z,135.47
2023-03-21T14:22:33.828Z,129.93
2023-03-21T14:25:14.465Z,141.53
2023-03-21T14:27:59.249Z,145.47
2023-03-21T14:30:45.312Z,154.47
2023-03-21T14:33:37.496Z,148.77
2023-03-21T14:36:21.630Z,146.97
2023-03-21T14:39:20.362Z,149.60
2023-03-21T14:42:01.182Z,152.53
2023-03-21T14:44:54.817Z,160.53
2023-03-21T14:47:40.037Z,166.87
2023-03-21T14:50:33.170Z,159.93
2023-03-21T14:53:17.324Z,169.63
2023-03-21T14:56:06.177Z,166.77
2023-03-21T14:58:49.168Z,161.77
2023-03-21T15:01:34.511Z,166.07
2023-03-21T15:04:21.532Z,176.23
2023-03-21T15:07:11.219Z,179.87
2023-03-21T15:09:59.404Z,165.90
2023-03-21T15:12:36.541Z,175.57
2023-03-21T15:15:20.450Z,175.97
2023-03-21T15:17:58.463Z,176.43
2023-03-21T15:20:47.414Z,167.83
2023-03-21T15:23:42.231Z,180.63
2023-03-21T15:26:25.493Z,166.70
2023-03-21T15:29:09.192Z,187.17
2023-03-21T15:31:57.425Z,176.50
2023-03-21T15:34:51.723Z,173.20
2023-03-21T15:37:35.440Z,172.57
2023-03-21T15:40:32.000Z,175.50
2023-03-21T15:43:30.551Z,180.97
2023-03-21T15:46:23.867Z,184.13
2023-03-21T15:49:31.896Z,168.97
2023-03-21T15:52:23.420Z,184.40
2023-03-21T15:55:04.367Z,174.40
2023-03-21T15:57:57.094Z,175.83
2023-03-21T16:00:54.342Z,177.23
2023-03-21T16:03:41.950Z,182.73
2023-03-21T16:06:29.872Z,181.90
2023-03-21T16:09:29.538Z,177.83
2023-03-21T16:12:21.966Z,179.93
2023-03-21T16:15:07.589Z,174.60
2023-03-21T16:17:58.029Z,179.80
2023-03-21T16:20:39.609Z,174.57
2023-03-21T16:23:18.636Z,166.57
2023-03-21T16:25:59.910Z,171.80
2023-03-21T16:28:45.955Z,168.20
2023-03-21T16:31:30.916Z,176.80
2023-03-21T16:34:08.595Z,170.77
2023-03-21T16:36:48.959Z,171.63
2023-03-21T16:39:35.811Z,169.00
2023-03-21T16:42:21.469Z,173.53
2023-03-21T16:45:30.159Z,169.37
2023-03-21T16:48:17.443Z,165.30
2023-03-21T16:50:54.686Z,165.73
2023-03-21T16:53:40.010Z,168.00
2023-03-21T16:56:22.103Z,170.97
2023-03-21T16:59:13.496Z,167.23
2023-03-21T17:01:56.701Z,161.37
2023-03-21T17:04:37.231Z,161.93
2023-03-21T17:07:16.935Z,163.30
2023-03-21T17:09:52.588Z,167.47
2023-03-21T17:12:29.444Z,153.53
2023-03-21T17:15:05.451Z,155.97
2023-03-21T17:17:44.981Z,160.10
2023-03-21T17:20:28.213Z,156.90
2023-03-21T17:23:04.963Z,149.87
2023-03-21T17:25:43.301Z,141.73
2023-03-21T17:28:19.330Z,141.13
2023-03-21T17:30:55.164Z,142.73
2023-03-21T17:33:32.729Z,136.57
2023-03-21T17:36:11.224Z,128.53
2023-03-21T17:38:47.875Z,123.93
2023-03-21T17:41:27.118Z,116.60
2023-03-21T17:44:03.454Z,124.83
2023-03-21T17:46:44.235Z,119.20
2023-03-21T17:49:23.104Z,119.93
2023-03-21T17:52:02.941Z,120.73
2023-03-21T17:54:40.146Z,117.00
2023-03-21T17:57:22.528Z,123.73
2023-03-21T17:59:59.798Z,123.97
2023-03-21T18:02:47.161Z,120.73
2023-03-21T18:05:23.910Z,121.53
2023-03-21T18:08:12.783Z,123.33
2023-03-21T18:10:49.080Z,114.83
2023-03-21T18:13:31.565Z,109.60
2023-03-21T18:16:07.222Z,110.03
2023-03-21T18:18:49.986Z,106.27
2023-03-21T18:21:32.891Z,111.50
2023-03-21T18:24:15.800Z,109.83
2023-03-21T18:26:53.649Z,110.63
2023-03-21T18:30:22.803Z,107.87
2023-03-21T18:32:29.825Z,108.03
2023-03-21T18:35:06.157Z,107.43
2023-03-21T18:37:42.175Z,111.60
2023-03-21T18:40:23.774Z,107.00
2023-03-21T18:45:56.542Z,105.03
2023-03-21T18:48:34.344Z,103.30
2023-03-21T18:51:11.594Z,102.27
2023-03-21T18:53:47.482Z,108.17
2023-03-21T18:59:23.127Z,101.33
2023-03-21T19:01:58.842Z,99.87
2023-03-21T19:04:34.928Z,100.53
2023-03-21T19:07:15.442Z,108.70
2023-03-21T19:10:17.361Z,103.13
2023-03-21T19:12:49.647Z,105.13
2023-03-21T19:15:27.145Z,99.27
2023-03-21T19:21:00.419Z,89.87
2023-03-21T19:24:16.305Z,88.03
2023-03-21T19:26:35.512Z,84.60
2023-03-21T19:29:16.244Z,81.50
2023-03-21T19:31:52.730Z,81.13
2023-03-21T19:34:28.514Z,88.03
2023-03-21T19:37:04.530Z,88.03
2023-03-21T19:39:41.987Z,90.97
2023-03-21T19:42:17.811Z,87.37
2023-03-21T19:44:56.551Z,82.47
2023-03-21T19:47:31.292Z,80.90
2023-03-21T19:53:01.778Z,87.53
2023-03-21T19:55:38.396Z,86.17
2023-03-21T19:58:13.989Z,74.03
2023-03-21T20:00:51.234Z,79.00
2023-03-21T20:03:26.711Z,74.90
2023-03-21T20:06:09.022Z,66.37
2023-03-21T20:09:13.737Z,76.33
2023-03-21T20:11:37.996Z,68.57
2023-03-21T20:14:12.885Z,63.70
2023-03-21T20:16:49.561Z,66.73
2023-03-21T20:19:26.383Z,57.00
2023-03-21T20:22:02.844Z,53.03
2023-03-21T20:24:39.052Z,59.27
2023-03-21T20:27:14.651Z,56.87
2023-03-21T20:30:08.621Z,63.00
2023-03-21T20:32:47.668Z,62.47
2023-03-21T20:35:47.979Z,58.00
2023-03-21T20:38:22.091Z,62.73
2023-03-21T20:40:56.573Z,61.63
2023-03-21T20:46:27.057Z,57.10
2023-03-21T20:49:07.393Z,58.07
2023-03-21T20:54:36.506Z,55.40
2023-03-21T20:57:11.726Z,56.07
2023-03-21T20:59:47.090Z,54.90
2023-03-21T21:02:22.783Z,54.50
2023-03-21T21:05:25.075Z,49.30
2023-03-21T21:07:54.060Z,49.70
2023-03-21T21:10:29.708Z,53.93
2023-03-21T21:13:04.837Z,49.97
2023-03-21T21:15:40.142Z,49.87
2023-03-21T21:18:15.108Z,55.27
2023-03-21T21:20:57.633Z,50.90
2023-03-21T21:23:32.833Z,48.93
2023-03-21T21:26:08.916Z,48.60
2023-03-21T21:28:44.896Z,49.60
2023-03-21T21:31:21.698Z,48.53
2023-03-21T21:33:57.458Z,50.93
2023-03-21T21:36:35.073Z,49.20
2023-03-21T21:39:10.769Z,51.77
2023-03-21T21:41:45.621Z,56.63
2023-03-21T21:44:20.973Z,56.47
2023-03-21T21:46:56.599Z,54.43
2023-03-21T21:49:32.944Z,53.83
2023-03-21T21:52:10.379Z,51.67
2023-03-21T21:54:47.806Z,56.10
2023-03-21T21:57:24.208Z,51.57
2023-03-21T22:00:00.057Z,54.23
2023-03-21T22:02:38.237Z,52.33
2023-03-21T22:05:14.968Z,52.73
2023-03-21T22:07:53.361Z,58.23
2023-03-21T22:10:28.972Z,56.03
2023-03-21T22:13:04.290Z,52.27
2023-03-21T22:15:39.481Z,56.83
2023-03-21T22:18:14.983Z,58.40
2023-03-21T22:20:50.853Z,60.37
2023-03-21T22:23:29.660Z,53.47
2023-03-21T22:26:05.191Z,59.00
2023-03-21T22:28:43.041Z,55.10
2023-03-21T22:31:19.927Z,59.03
2023-03-21T22:33:55.291Z,61.70
2023-03-21T22:36:30.403Z,57.27
2023-03-21T22:39:08.186Z,63.37
2023-03-21T22:41:43.609Z,62.80
2023-03-21T22:44:19.035Z,63.80
2023-03-21T22:46:54.079Z,66.13
2023-03-21T22:49:29.302Z,62.20
2023-03-21T22:52:06.349Z,64.87
2023-03-21T22:54:43.996Z,66.63
2023-03-21T22:57:21.492Z,71.53
2023-03-21T22:59:56.713Z,68.40
2023-03-21T23:02:32.797Z,69.63
2023-03-21T23:05:11.792Z,73.27
2023-03-21T23:07:47.942Z,75.20
2023-03-21T23:10:26.161Z,69.80
2023-03-21T23:13:01.471Z,73.77
2023-03-21T23:15:36.708Z,75.73
2023-03-21T23:18:12.944Z,76.37
2023-03-21T23:20:48.874Z,79.80
2023-03-21T23:23:24.335Z,78.43
2023-03-21T23:26:05.345Z,75.80
2023-03-21T23:28:41.169Z,72.07
2023-03-21T23:31:21.552Z,76.30
2023-03-21T23:33:57.727Z,72.53
2023-03-21T23:36:33.589Z,82.90
2023-03-21T23:39:09.482Z,77.40
2023-03-21T23:41:51.726Z,79.83
2023-03-21T23:44:31.194Z,81.10
2023-03-21T23:47:07.476Z,75.53
2023-03-21T23:49:46.855Z,72.43
2023-03-21T23:52:31.305Z,71.57
2023-03-21T23:55:07.327Z,80.93
2023-03-21T23:58:00.467Z,76.50
